Time;durP1;ratioP1;P1;durP2;ratioP2;P2;SDS_P1;SDS_P2;PMS_P1;PMS_P2;Temp;Humidity;BMP_temperature;BMP_pressure;BME280_temperature;BME280_humidity;BME280_pressure;Samples;Min_cycle;Max_cycle;Signal;HPM_P1;HPM_P2
2021/12/19 00:01:03;;;;;;;8.90;6.28;;;;;;;20.88;27.60;100762.84;5133671;28;20047;-57
2021/12/19 00:08:51;;;;;;;8.02;6.28;;;;;;;20.82;27.75;100764.22;5133715;28;20053;-57
2021/12/19 00:11:22;;;;;;;7.40;5.80;;;;;;;20.80;27.66;100765.72;5133440;28;20499;-57
2021/12/19 00:13:48;;;;;;;7.90;5.95;;;;;;;20.78;27.73;100763.25;5133397;27;20035;-57
2021/12/19 00:16:15;;;;;;;8.75;6.35;;;;;;;20.79;27.61;100767.69;5133439;27;20113;-57
2021/12/19 00:18:43;;;;;;;8.27;6.30;;;;;;;20.78;27.68;100762.47;5132113;28;20494;-57
2021/12/19 00:21:10;;;;;;;8.82;6.32;;;;;;;20.77;27.54;100750.53;5133187;27;20043;-57
2021/12/19 00:23:37;;;;;;;8.32;6.20;;;;;;;20.77;27.74;100756.09;5133594;27;20076;-57
2021/12/19 00:26:03;;;;;;;8.00;5.95;;;;;;;20.75;27.58;100757.59;5133306;27;20122;-57
2021/12/19 00:28:28;;;;;;;9.15;6.43;;;;;;;20.75;27.77;100763.97;5133347;27;20506;-57
2021/12/19 00:30:54;;;;;;;8.80;6.40;;;;;;;20.77;27.63;100766.41;5133456;28;20035;-64
2021/12/19 00:33:19;;;;;;;9.45;6.63;;;;;;;20.74;27.86;100756.78;5133358;27;20054;-64
2021/12/19 00:35:47;;;;;;;8.73;6.00;;;;;;;20.75;27.77;100752.03;5133068;28;20043;-64
2021/12/19 00:38:13;;;;;;;8.70;6.68;;;;;;;20.75;27.56;100755.63;5133173;27;20065;-63
2021/12/19 00:40:39;;;;;;;9.55;6.47;;;;;;;20.73;27.58;100755.16;5133393;27;20039;-63
2021/12/19 00:43:09;;;;;;;8.18;6.28;;;;;;;20.74;27.53;100751.22;5133158;27;20043;-64
2021/12/19 00:45:37;;;;;;;8.55;6.10;;;;;;;20.77;27.56;100747.75;5132954;27;20051;-64
2021/12/19 00:48:05;;;;;;;9.15;5.93;;;;;;;20.76;27.78;100748.91;5132835;27;20140;-64
2021/12/19 00:50:31;;;;;;;8.20;5.93;;;;;;;20.76;27.47;100748.91;5132758;27;20040;-64
2021/12/19 00:52:57;;;;;;;7.50;5.70;;;;;;;20.75;27.43;100747.28;5133001;27;20402;-64
2021/12/19 00:55:27;;;;;;;7.10;5.70;;;;;;;20.75;27.56;100749.25;5132669;27;20057;-64
2021/12/19 00:57:54;;;;;;;8.25;6.20;;;;;;;20.74;27.69;100744.84;5132886;27;20228;-64
2021/12/19 01:00:24;;;;;;;8.95;6.18;;;;;;;20.73;27.54;100744.03;5132731;27;20120;-64
2021/12/19 01:02:51;;;;;;;8.63;6.45;;;;;;;20.73;27.71;100738.47;5132709;27;20430;-64
2021/12/19 01:05:18;;;;;;;8.23;6.38;;;;;;;20.73;27.53;100735.69;5132587;27;20050;-64
2021/12/19 01:07:44;;;;;;;7.25;6.00;;;;;;;20.74;27.46;100742.88;5132925;27;20035;-64
2021/12/19 01:10:10;;;;;;;7.55;5.88;;;;;;;20.74;27.50;100737.31;5132119;27;20050;-64
2021/12/19 01:12:38;;;;;;;8.23;6.38;;;;;;;20.74;27.57;100737.31;5132638;27;20062;-64
2021/12/19 01:15:11;;;;;;;8.27;6.15;;;;;;;20.72;27.66;100734.06;5132407;27;20058;-64
2021/12/19 01:17:37;;;;;;;8.15;5.63;;;;;;;20.73;27.49;100737.66;5132682;27;20043;-64
2021/12/19 01:20:05;;;;;;;8.38;6.20;;;;;;;20.73;27.49;100734.88;5132471;27;20103;-64
2021/12/19 01:22:31;;;;;;;8.20;6.28;;;;;;;20.72;27.39;100736.84;5131048;28;20562;-64
2021/12/19 01:24:56;;;;;;;8.13;6.40;;;;;;;20.72;27.53;100736.03;5132386;27;20172;-64
2021/12/19 01:27:22;;;;;;;8.55;6.68;;;;;;;20.71;27.58;100731.63;5132088;28;20036;-63
2021/12/19 01:29:47;;;;;;;8.57;6.47;;;;;;;20.71;27.46;100737.97;5132323;27;20118;-63
2021/12/19 01:32:13;;;;;;;7.82;6.05;;;;;;;20.70;27.46;100736.38;5131212;27;20509;-63
2021/12/19 01:34:38;;;;;;;8.20;6.32;;;;;;;20.71;27.36;100735.19;5111570;28;20407;-63
2021/12/19 01:37:03;;;;;;;9.00;6.55;;;;;;;20.70;27.44;100730.00;5111788;28;20415;-64
2021/12/19 01:39:29;;;;;;;9.43;6.85;;;;;;;20.69;27.38;100736.72;5111645;28;20100;-63
2021/12/19 01:41:57;;;;;;;8.25;6.20;;;;;;;20.68;27.44;100733.13;5111856;28;20047;-56
2021/12/19 01:44:25;;;;;;;7.63;5.60;;;;;;;20.68;27.51;100732.31;5111748;28;20044;-57
2021/12/19 01:46:53;;;;;;;8.20;6.35;;;;;;;20.68;27.44;100735.91;5111635;28;20126;-57
2021/12/19 01:49:20;;;;;;;8.60;6.78;;;;;;;20.68;27.27;100733.13;5111596;28;20138;-57
2021/12/19 01:51:46;;;;;;;8.68;6.57;;;;;;;20.66;27.46;100732.66;5111425;28;20127;-63
2021/12/19 01:54:12;;;;;;;8.55;6.85;;;;;;;20.66;27.34;100735.44;5111268;28;20162;-63
2021/12/19 01:56:38;;;;;;;8.80;6.80;;;;;;;20.67;27.43;100739.84;5111329;28;20035;-63
2021/12/19 01:59:07;;;;;;;9.50;6.80;;;;;;;20.68;27.31;100740.66;5111538;28;20434;-63
2021/12/19 02:01:44;;;;;;;9.10;7.20;;;;;;;20.65;27.43;100730.22;5111559;28;20471;-63
2021/12/19 02:04:11;;;;;;;9.80;6.63;;;;;;;20.64;27.45;100729.38;5111564;28;20050;-62
2021/12/19 02:06:37;;;;;;;9.18;6.60;;;;;;;20.65;27.26;100727.44;5111457;28;20463;-64
2021/12/19 02:09:06;;;;;;;8.90;6.90;;;;;;;20.65;27.30;100725.47;5111314;28;20068;-64
2021/12/19 02:11:33;;;;;;;8.57;6.38;;;;;;;20.66;27.28;100729.06;5111086;28;20042;-64
2021/12/19 02:13:59;;;;;;;8.85;6.63;;;;;;;20.67;27.42;100727.91;5111007;28;20565;-64
2021/12/19 02:16:25;;;;;;;8.90;6.57;;;;;;;20.66;27.26;100734.63;5111141;28;20096;-64
2021/12/19 02:18:50;;;;;;;8.63;6.35;;;;;;;20.66;27.31;100731.84;5111085;28;20035;-64
2021/12/19 02:21:16;;;;;;;8.48;6.47;;;;;;;20.63;27.29;100724.16;5109765;28;20121;-63
2021/12/19 02:23:42;;;;;;;8.45;5.97;;;;;;;20.65;27.48;100721.88;5110733;28;20046;-63
2021/12/19 02:26:07;;;;;;;8.88;7.00;;;;;;;20.67;27.35;100719.56;5111093;28;20126;-63
2021/12/19 02:28:33;;;;;;;7.55;5.93;;;;;;;20.64;27.48;100711.91;5110977;28;20046;-63
2021/12/19 02:30:58;;;;;;;8.75;6.47;;;;;;;20.64;27.26;100714.69;5110956;28;20053;-64
2021/12/19 02:33:26;;;;;;;7.95;5.97;;;;;;;20.65;27.43;100714.34;5110846;28;20036;-63
2021/12/19 02:36:23;;;;;;;8.27;6.15;;;;;;;20.64;27.31;100712.69;5110818;28;20047;-63
2021/12/19 02:50:04;;;;;;;8.85;6.72;;;;;;;21.34;26.36;100713.59;5087990;28;20093;-56
2021/12/19 02:52:29;;;;;;;8.13;6.57;;;;;;;21.21;26.52;100703.56;5087722;28;20128;-56
2021/12/19 02:54:55;;;;;;;9.15;6.75;;;;;;;21.10;26.59;100699.63;5087866;28;20048;-56
2021/12/19 02:57:20;;;;;;;8.48;6.72;;;;;;;21.03;26.85;100702.16;5087685;28;20123;-56
2021/12/19 02:59:46;;;;;;;8.35;6.43;;;;;;;20.96;26.96;100691.59;5087443;28;20139;-56
2021/12/19 03:02:11;;;;;;;9.43;7.05;;;;;;;20.91;27.06;100689.03;5087392;28;20047;-56
2021/12/19 03:04:36;;;;;;;10.20;6.47;;;;;;;20.87;27.07;100688.94;5087309;28;20055;-56
2021/12/19 03:07:02;;;;;;;9.05;6.57;;;;;;;20.82;26.93;100683.56;5087653;28;20052;-56
2021/12/19 03:12:28;;;;;;;9.32;7.05;;;;;;;20.78;26.92;100681.81;5087464;28;20086;-57
2021/12/19 03:20:21;;;;;;;9.45;7.05;;;;;;;20.71;27.19;100689.91;5110097;28;20051;-64
2021/12/19 03:22:46;;;;;;;9.43;6.78;;;;;;;20.68;27.38;100673.94;5110058;28;20051;-64
2021/12/19 03:25:12;;;;;;;10.18;7.45;;;;;;;20.69;27.08;100675.53;5110168;28;20051;-64
2021/12/19 03:27:37;;;;;;;9.63;7.50;;;;;;;20.69;27.08;100675.53;5110176;28;20047;-63
2021/12/19 03:30:05;;;;;;;8.45;6.22;;;;;;;20.68;27.12;100668.38;5110122;28;20039;-64
2021/12/19 03:32:31;;;;;;;8.65;6.82;;;;;;;20.68;27.16;100669.19;5109593;28;20044;-63
2021/12/19 03:34:57;;;;;;;8.73;6.75;;;;;;;20.66;27.21;100671.50;5109646;28;20047;-63
2021/12/19 03:37:22;;;;;;;9.32;7.43;;;;;;;20.68;27.24;100671.16;5109626;28;20048;-64
2021/12/19 03:39:56;;;;;;;9.90;7.35;;;;;;;20.68;27.08;100669.19;5109839;28;20101;-63
2021/12/19 03:42:25;;;;;;;9.60;7.05;;;;;;;20.67;27.07;100670.34;5109753;28;20040;-63
2021/12/19 03:44:51;;;;;;;8.85;6.75;;;;;;;20.65;27.11;100667.09;5109851;28;20044;-63
2021/12/19 03:47:16;;;;;;;9.52;6.90;;;;;;;20.62;27.01;100659.41;5109725;28;20392;-64
2021/12/19 03:49:42;;;;;;;9.45;6.80;;;;;;;20.66;27.09;100665.13;5109669;28;20051;-64
2021/12/19 03:52:07;;;;;;;9.32;7.00;;;;;;;20.65;27.02;100664.31;5109443;28;20110;-65
2021/12/19 03:54:33;;;;;;;8.93;6.72;;;;;;;20.63;27.13;100655.47;5109584;28;20047;-64
2021/12/19 03:56:58;;;;;;;8.20;6.32;;;;;;;20.66;27.17;100657.59;5109733;28;20084;-64
2021/12/19 03:59:26;;;;;;;10.10;7.20;;;;;;;20.67;27.03;100656.44;5109402;28;20135;-64
2021/12/19 04:01:52;;;;;;;9.15;6.60;;;;;;;20.65;27.01;100652.38;5109278;28;20126;-63
2021/12/19 04:04:18;;;;;;;8.77;6.93;;;;;;;20.63;27.15;100649.94;5109510;28;20484;-64
2021/12/19 04:06:43;;;;;;;9.90;7.18;;;;;;;20.63;26.92;100647.16;5109499;28;20554;-64
2021/12/19 04:09:09;;;;;;;9.00;6.60;;;;;;;20.61;27.08;100633.59;5109473;28;20044;-64
2021/12/19 04:11:34;;;;;;;9.57;7.13;;;;;;;20.61;26.95;100639.16;5109351;28;20058;-56
2021/12/19 04:14:00;;;;;;;8.18;6.28;;;;;;;20.63;27.09;100632.44;5109296;28;20043;-57
2021/12/19 04:16:26;;;;;;;9.50;6.70;;;;;;;21.14;26.50;100636.56;5109281;28;20450;-57
2021/12/19 04:18:51;;;;;;;8.50;6.65;;;;;;;21.76;25.85;100624.22;5109062;28;20484;-57
2021/12/19 04:21:19;;;;;;;9.25;7.03;;;;;;;21.82;25.71;100622.03;5109279;28;20092;-57
2021/12/19 04:23:45;;;;;;;8.73;6.55;;;;;;;21.68;25.54;100622.41;5109168;28;20047;-57
2021/12/19 04:26:10;;;;;;;8.82;6.72;;;;;;;21.50;25.86;100615.47;5107687;28;20052;-57
2021/12/19 04:28:36;;;;;;;8.90;6.47;;;;;;;21.33;26.08;100620.13;5129856;27;20074;-57
2021/12/19 04:31:03;;;;;;;9.13;6.78;;;;;;;21.19;26.42;100616.03;5129296;28;20054;-57
2021/12/19 04:33:31;;;;;;;8.55;6.75;;;;;;;21.08;26.18;100615.72;5129488;27;20035;-57
2021/12/19 04:36:00;;;;;;;8.88;6.47;;;;;;;21.00;26.58;100609.06;5128873;27;20514;-57
2021/12/19 05:15:28;;;;;;;9.20;6.82;;;;;;;20.66;26.96;100592.84;5132968;28;20054;-57
2021/12/19 05:17:56;;;;;;;8.57;5.82;;;;;;;20.67;26.95;100600.84;5132527;27;20046;-57
2021/12/19 05:20:26;;;;;;;9.15;7.30;;;;;;;20.65;27.06;100597.59;5132549;27;20053;-57
2021/12/19 05:22:56;;;;;;;7.90;6.45;;;;;;;20.66;26.69;100590.06;5132597;27;20464;-57
2021/12/19 05:25:21;;;;;;;8.70;6.70;;;;;;;20.65;26.96;100599.56;5132470;27;20122;-57
2021/12/19 05:27:50;;;;;;;8.38;6.53;;;;;;;20.65;26.31;100602.34;5132406;27;20164;-56
2021/12/19 05:30:16;;;;;;;7.25;5.90;;;;;;;20.65;26.94;100592.03;5132304;27;20032;-56
2021/12/19 05:32:44;;;;;;;8.68;6.47;;;;;;;20.63;26.71;100594.31;5125325;27;21003;-56
2021/12/19 05:35:13;;;;;;;9.90;7.18;;;;;;;20.63;26.86;100599.06;5111585;28;20057;-57
2021/12/19 05:45:52;;;;;;;9.15;7.00;;;;;;;20.57;26.75;100584.59;5108792;28;20061;-56
2021/12/19 05:48:18;;;;;;;9.23;6.57;;;;;;;20.60;26.83;100578.34;5111663;28;20515;-56
2021/12/19 05:50:43;;;;;;;9.55;7.00;;;;;;;20.57;26.60;100582.63;5111291;28;20055;-56
2021/12/19 05:53:11;;;;;;;9.10;6.95;;;;;;;20.60;26.86;100579.16;5111493;28;20044;-57
2021/12/19 05:55:37;;;;;;;10.13;7.60;;;;;;;20.60;26.79;100583.91;5111346;28;20494;-56
2021/12/19 05:58:03;;;;;;;9.35;7.25;;;;;;;20.58;26.72;100575.13;5092734;28;20445;-56
2021/12/19 06:00:29;;;;;;;8.68;6.78;;;;;;;20.57;26.64;100581.81;5111175;28;20576;-56
2021/12/19 06:02:55;;;;;;;10.55;7.70;;;;;;;20.57;26.95;100579.88;5111250;28;20085;-56
2021/12/19 06:05:20;;;;;;;10.50;7.85;;;;;;;20.57;26.73;100579.88;5111482;28;20047;-57
2021/12/19 06:07:46;;;;;;;9.35;7.07;;;;;;;20.59;26.64;100579.50;5111348;28;20056;-57
2021/12/19 06:10:11;;;;;;;10.57;7.57;;;;;;;20.58;26.80;100569.56;5111318;28;20412;-57
2021/12/19 06:12:37;;;;;;;9.60;7.13;;;;;;;20.57;26.71;100567.91;5111070;28;20036;-57
2021/12/19 06:15:05;;;;;;;9.40;6.63;;;;;;;20.58;26.88;100566.78;5111122;28;20449;-57
2021/12/19 06:17:30;;;;;;;10.95;7.55;;;;;;;20.56;26.58;100563.50;5111039;28;20112;-57
2021/12/19 06:19:56;;;;;;;9.93;7.63;;;;;;;20.56;26.46;100563.50;5111176;28;20480;-57
2021/12/19 06:22:21;;;;;;;9.45;7.25;;;;;;;20.54;26.51;100566.63;5110926;28;20055;-57
2021/12/19 06:24:46;;;;;;;10.63;6.95;;;;;;;20.53;26.66;100562.25;5110684;28;20135;-57
2021/12/19 06:27:12;;;;;;;10.13;7.28;;;;;;;20.54;26.66;100560.25;5111175;28;20040;-57
2021/12/19 06:29:37;;;;;;;9.55;7.25;;;;;;;20.54;26.57;100563.06;5110953;28;20051;-57
2021/12/19 06:32:03;;;;;;;10.23;7.63;;;;;;;20.54;26.64;100560.25;5111058;28;20071;-57
2021/12/19 06:34:28;;;;;;;9.27;7.28;;;;;;;20.53;26.89;100556.69;5110852;28;20052;-56
2021/12/19 06:36:54;;;;;;;9.38;7.38;;;;;;;20.52;26.68;100555.06;5110799;28;20507;-56
2021/12/19 06:39:21;;;;;;;11.07;7.68;;;;;;;20.53;26.82;100550.31;5110528;28;20048;-56
2021/12/19 06:41:47;;;;;;;9.95;7.35;;;;;;;20.52;26.74;100549.50;5110662;28;20066;-56
2021/12/19 06:44:12;;;;;;;9.60;7.45;;;;;;;20.51;26.73;100542.31;5110579;28;20035;-57
2021/12/19 06:46:38;;;;;;;10.10;7.20;;;;;;;20.52;26.83;100541.16;5110582;28;20047;-57
2021/12/19 06:49:04;;;;;;;9.20;7.30;;;;;;;20.52;26.66;100541.16;5110694;28;20036;-57
2021/12/19 06:51:33;;;;;;;9.90;7.72;;;;;;;20.54;26.80;100543.59;5110667;28;20521;-57
2021/12/19 06:53:59;;;;;;;9.75;7.53;;;;;;;20.54;26.83;100543.59;5110263;28;20142;-57
2021/12/19 06:56:25;;;;;;;9.43;7.28;;;;;;;20.49;26.66;100527.94;5110325;28;20059;-57
2021/12/19 06:58:51;;;;;;;9.25;6.70;;;;;;;20.52;26.64;100537.56;5110348;28;20407;-64
2021/12/19 07:01:16;;;;;;;9.20;7.00;;;;;;;20.51;26.75;100539.53;5110545;28;20051;-64
2021/12/19 07:03:42;;;;;;;9.52;7.63;;;;;;;20.53;26.86;100530.84;5110143;28;20069;-63
2021/12/19 07:06:07;;;;;;;8.50;6.75;;;;;;;20.51;26.76;100536.75;5109957;28;20051;-64
2021/12/19 07:08:33;;;;;;;9.00;7.32;;;;;;;20.51;26.61;100536.75;5110783;28;20032;-64
2021/12/19 07:10:58;;;;;;;10.35;7.35;;;;;;;20.52;26.74;100532.03;5110463;28;20046;-64
2021/12/19 07:13:23;;;;;;;9.70;6.97;;;;;;;20.52;26.76;100540.34;5110489;28;20093;-64
2021/12/19 07:15:51;;;;;;;10.05;7.78;;;;;;;20.52;26.81;100543.13;5110176;28;20490;-64
2021/12/19 07:18:17;;;;;;;9.95;7.55;;;;;;;20.51;26.69;100535.97;5110250;28;20515;-64
2021/12/19 07:20:44;;;;;;;10.63;7.72;;;;;;;20.51;26.86;100536.75;5110120;28;20044;-64
2021/12/19 07:23:16;;;;;;;9.80;7.45;;;;;;;20.51;26.75;100538.75;5110129;28;20066;-63
2021/12/19 07:25:42;;;;;;;10.40;7.45;;;;;;;20.51;26.63;100536.75;5110074;28;20130;-56
2021/12/19 07:28:08;;;;;;;9.57;7.10;;;;;;;20.49;26.67;100544.63;5110114;28;20130;-57
2021/12/19 07:30:36;;;;;;;9.90;7.45;;;;;;;20.47;26.69;100535.81;5110124;28;20662;-57
2021/12/19 07:33:03;;;;;;;9.93;7.20;;;;;;;20.48;26.67;100531.06;5109862;28;20031;-64
2021/12/19 07:35:30;;;;;;;10.25;7.53;;;;;;;20.51;26.51;100535.97;5109943;28;20043;-64
2021/12/19 07:37:56;;;;;;;10.27;7.43;;;;;;;20.51;26.68;100536.75;5110019;28;20492;-63
2021/12/19 07:40:24;;;;;;;9.30;7.10;;;;;;;20.50;26.77;100542.66;5109934;28;20074;-63
2021/12/19 07:42:50;;;;;;;10.77;7.65;;;;;;;20.48;26.84;100534.66;5109966;28;20048;-64
2021/12/19 07:45:16;;;;;;;11.13;7.57;;;;;;;20.51;26.65;100542.31;5110110;28;20044;-57
2021/12/19 07:47:43;;;;;;;11.63;8.30;;;;;;;20.52;26.57;100540.34;5109923;28;20163;-57
2021/12/19 07:50:10;;;;;;;10.77;8.13;;;;;;;20.52;26.56;100543.13;5109765;28;20035;-57
2021/12/19 07:52:37;;;;;;;11.02;7.50;;;;;;;20.51;26.65;100542.31;5109784;28;20392;-57
2021/12/19 07:55:05;;;;;;;10.82;7.72;;;;;;;20.51;26.72;100544.28;5109764;28;20477;-57
2021/12/19 07:57:31;;;;;;;10.20;7.35;;;;;;;20.48;26.74;100540.22;5091414;28;20108;-57
2021/12/19 07:59:57;;;;;;;11.07;7.97;;;;;;;20.48;26.92;100537.44;5109616;28;20415;-57
2021/12/19 08:02:22;;;;;;;9.73;7.57;;;;;;;20.50;26.85;100537.09;5085426;28;20044;-57
2021/12/19 08:04:47;;;;;;;11.30;8.25;;;;;;;20.50;26.71;100537.94;5109837;28;20570;-57
2021/12/19 08:07:16;;;;;;;10.93;7.82;;;;;;;20.50;26.79;100537.09;5109721;28;20050;-57
2021/12/19 08:09:58;;;;;;;10.65;7.90;;;;;;;20.48;26.75;100536.63;5109473;28;20047;-57
2021/12/19 08:12:24;;;;;;;10.77;8.00;;;;;;;20.51;26.66;100530.41;5109697;28;20044;-57
2021/12/19 08:14:50;;;;;;;11.90;8.80;;;;;;;20.49;26.81;100524.34;5109613;28;20418;-64
2021/12/19 08:17:17;;;;;;;11.20;8.05;;;;;;;20.52;26.90;100530.03;5109502;28;20085;-64
2021/12/19 08:19:42;;;;;;;12.15;8.80;;;;;;;20.52;26.93;100518.13;5111719;28;20122;-64
2021/12/19 08:22:08;;;;;;;11.10;7.90;;;;;;;20.50;26.75;100518.47;5112975;28;20123;-64
2021/12/19 08:24:35;;;;;;;10.40;7.65;;;;;;;20.48;26.67;100520.75;5112902;28;20097;-64
2021/12/19 08:27:00;;;;;;;10.13;7.72;;;;;;;20.52;26.74;100512.56;5112721;28;20124;-64
2021/12/19 08:29:26;;;;;;;10.88;7.97;;;;;;;20.52;26.74;100518.13;5112779;28;20123;-57
2021/12/19 08:31:51;;;;;;;11.30;8.32;;;;;;;20.53;27.15;100516.97;5112695;28;20495;-57
2021/12/19 08:34:17;;;;;;;11.02;7.78;;;;;;;20.49;26.92;100508.47;5112506;28;20415;-57
2021/12/19 08:36:42;;;;;;;11.82;8.23;;;;;;;20.51;26.98;100502.59;5112863;28;20039;-57
2021/12/19 08:39:10;;;;;;;11.43;8.18;;;;;;;20.50;26.99;100512.06;5112615;28;20493;-57
2021/12/19 08:41:36;;;;;;;11.10;8.20;;;;;;;20.51;27.02;100505.38;5112568;28;20500;-57
2021/12/19 08:44:02;;;;;;;10.55;7.85;;;;;;;20.47;26.87;100505.25;5112499;28;20050;-57
2021/12/19 08:46:28;;;;;;;11.55;8.32;;;;;;;20.46;26.91;100500.84;5112456;28;20048;-57
2021/12/19 08:48:53;;;;;;;10.65;7.43;;;;;;;20.46;27.20;100500.84;5112369;28;20050;-57
2021/12/19 08:51:19;;;;;;;10.52;8.02;;;;;;;20.49;27.03;100502.13;5112274;28;20040;-57
2021/12/19 08:53:44;;;;;;;10.75;8.50;;;;;;;20.50;26.94;100510.13;5112527;28;20043;-57
2021/12/19 08:56:10;;;;;;;10.85;8.20;;;;;;;20.52;26.82;100498.66;5112374;28;20040;-57
2021/12/19 08:58:35;;;;;;;11.77;8.35;;;;;;;20.51;26.95;100503.41;5112367;28;20465;-58
2021/12/19 09:01:02;;;;;;;10.70;8.23;;;;;;;20.51;27.12;100505.38;5112477;28;20036;-55
2021/12/19 09:03:32;;;;;;;11.00;7.65;;;;;;;20.51;27.00;100505.38;5112390;28;20089;-55
2021/12/19 09:05:58;;;;;;;10.80;7.63;;;;;;;20.51;26.98;100497.84;5112217;28;20127;-55
2021/12/19 09:08:23;;;;;;;10.02;7.78;;;;;;;20.51;27.00;100495.06;5111962;28;20127;-55
2021/12/19 09:10:49;;;;;;;10.55;7.57;;;;;;;20.51;27.20;100491.50;5112121;28;20062;-55
2021/12/19 09:13:14;;;;;;;11.50;8.00;;;;;;;20.52;27.10;100482.00;5112069;28;20510;-55
2021/12/19 09:15:40;;;;;;;11.10;7.88;;;;;;;20.52;27.08;100482.78;5111879;28;20047;-57
2021/12/19 09:18:05;;;;;;;11.27;7.82;;;;;;;20.54;27.09;100482.44;5112155;28;20385;-56
2021/12/19 09:20:31;;;;;;;10.43;7.53;;;;;;;20.52;27.13;100480.03;5111949;28;20084;-57
2021/12/19 09:22:56;;;;;;;11.30;7.93;;;;;;;20.53;27.35;100481.63;5111765;28;20044;-57
2021/12/19 09:25:21;;;;;;;10.73;7.78;;;;;;;20.53;27.31;100478.03;5111930;28;20035;-57
2021/12/19 09:27:47;;;;;;;11.85;7.93;;;;;;;20.55;27.38;100482.09;5111989;28;20109;-56
2021/12/19 09:30:14;;;;;;;10.05;7.35;;;;;;;20.54;27.14;100480.47;5111416;28;20056;-64
2021/12/19 09:32:40;;;;;;;10.27;7.28;;;;;;;20.51;27.15;100480.38;5111662;28;20051;-64
2021/12/19 09:35:07;;;;;;;11.30;8.25;;;;;;;20.52;27.15;100474.47;5111620;28;20055;-64
2021/12/19 09:37:35;;;;;;;10.88;7.95;;;;;;;20.53;27.35;100467.75;5111734;28;20043;-64
2021/12/19 09:40:03;;;;;;;11.27;8.02;;;;;;;20.54;27.42;100468.53;5111800;28;20039;-64
2021/12/19 09:42:34;;;;;;;10.75;8.00;;;;;;;20.54;27.25;100465.78;5111699;28;20044;-64
2021/12/19 09:45:01;;;;;;;11.70;8.55;;;;;;;20.53;27.23;100464.97;5111454;28;20484;-63
2021/12/19 09:47:27;;;;;;;10.18;7.75;;;;;;;20.55;27.34;100459.03;5111502;28;20058;-57
2021/12/19 09:49:53;;;;;;;9.95;7.95;;;;;;;20.56;27.45;100457.88;5111553;28;20040;-57
2021/12/19 09:52:19;;;;;;;10.95;8.13;;;;;;;20.55;27.33;100459.03;5111549;28;20035;-64
2021/12/19 09:54:48;;;;;;;11.20;7.90;;;;;;;20.57;27.49;100462.28;5111428;28;20054;-64
2021/12/19 09:57:13;;;;;;;10.85;8.20;;;;;;;20.54;27.50;100457.44;5111541;28;20535;-64
2021/12/19 09:59:38;;;;;;;11.27;8.00;;;;;;;20.58;27.39;100459.19;5111270;28;20057;-57
2021/12/19 10:02:04;;;;;;;10.52;7.88;;;;;;;20.57;27.58;100457.56;5111174;28;20127;-57
2021/12/19 10:04:40;;;;;;;12.38;7.68;;;;;;;20.56;27.66;100455.91;5111214;28;20043;-57
2021/12/19 10:07:13;;;;;;;10.57;7.53;;;;;;;20.57;27.74;100452.00;5111383;28;20044;-57
2021/12/19 10:10:06;;;;;;;10.45;7.90;;;;;;;20.57;27.65;100445.59;5111224;28;20554;-57
2021/12/19 10:12:48;;;;;;;10.85;8.02;;;;;;;20.59;27.72;100440.53;5111465;28;20070;-57
2021/12/19 10:15:28;;;;;;;9.85;7.32;;;;;;;20.58;27.68;100441.69;5111105;28;20496;-57
2021/12/19 10:18:14;;;;;;;10.07;7.13;;;;;;;20.58;27.69;100433.34;5110991;28;20138;-57
2021/12/19 10:20:50;;;;;;;11.15;8.00;;;;;;;20.57;27.76;100432.53;5110902;28;20068;-57
2021/12/19 10:23:25;;;;;;;10.50;7.72;;;;;;;20.59;27.69;100440.53;5111061;28;20054;-57
2021/12/19 10:25:58;;;;;;;9.52;7.20;;;;;;;20.59;27.89;100427.44;5111122;28;20044;-57
2021/12/19 10:28:24;;;;;;;9.68;7.05;;;;;;;20.61;27.93;100424.31;5110997;28;20567;-57
2021/12/19 10:30:51;;;;;;;9.38;6.90;;;;;;;21.13;27.01;100415.16;5110952;28;20056;-57
2021/12/19 10:33:19;;;;;;;9.15;6.88;;;;;;;21.41;26.84;100409.63;5110890;28;20056;-57
2021/12/19 10:35:48;;;;;;;9.02;6.93;;;;;;;21.38;26.94;100402.81;5110625;28;20051;-64
2021/12/19 10:38:13;;;;;;;9.20;6.85;;;;;;;21.28;26.88;100400.50;5110470;28;20035;-64
2021/12/19 10:40:43;;;;;;;8.35;6.43;;;;;;;21.46;26.88;100400.22;5110319;28;20419;-63
2021/12/19 10:43:15;;;;;;;9.68;6.95;;;;;;;22.34;25.70;100393.38;5110415;28;20153;-64
2021/12/19 10:45:52;;;;;;;8.32;6.53;;;;;;;22.30;25.98;100381.38;5110560;28;20048;-57
2021/12/19 10:48:22;;;;;;;9.20;6.55;;;;;;;22.07;26.06;100370.00;5110302;28;20534;-57
2021/12/19 10:50:55;;;;;;;7.90;6.15;;;;;;;21.86;26.37;100373.09;5110109;28;20047;-57
2021/12/19 10:53:29;;;;;;;7.82;6.20;;;;;;;21.65;26.86;100367.75;5110573;28;20047;-64
2021/12/19 10:55:55;;;;;;;9.43;6.68;;;;;;;21.51;26.87;100361.00;5110399;28;20043;-64
2021/12/19 10:58:34;;;;;;;8.85;6.43;;;;;;;21.40;27.22;100355.94;5110561;28;20058;-64
2021/12/19 11:01:14;;;;;;;7.70;6.13;;;;;;;21.31;27.09;100352.53;5110458;28;20537;-64
2021/12/19 11:03:50;;;;;;;8.43;6.03;;;;;;;21.25;27.35;100356.69;5110377;28;20047;-64
2021/12/19 11:06:27;;;;;;;7.45;5.70;;;;;;;21.20;27.52;100356.94;5110153;28;20496;-64
2021/12/19 11:08:54;;;;;;;7.53;5.80;;;;;;;21.16;27.54;100356.84;5110464;28;20533;-64
2021/12/19 11:11:47;;;;;;;7.90;6.43;;;;;;;21.11;27.44;100343.19;5110035;28;20530;-63
2021/12/19 11:14:16;;;;;;;7.18;5.60;;;;;;;21.10;27.68;100343.53;5110053;28;20444;-64
2021/12/19 11:16:43;;;;;;;8.27;6.00;;;;;;;21.08;27.78;100349.47;5108032;28;20097;-64
2021/12/19 11:19:09;;;;;;;8.43;6.07;;;;;;;21.04;27.53;100348.53;5110092;28;20044;-63
2021/12/19 11:21:36;;;;;;;7.07;5.65;;;;;;;21.02;27.83;100342.53;5110163;28;20526;-63
2021/12/19 11:24:07;;;;;;;7.60;5.97;;;;;;;21.00;27.96;100335.69;5110009;28;20046;-63
2021/12/19 11:26:34;;;;;;;7.95;5.75;;;;;;;21.00;27.75;100342.06;5110128;28;20047;-63
2021/12/19 11:29:00;;;;;;;7.18;5.55;;;;;;;20.99;27.80;100332.09;5109834;28;20133;-64
2021/12/19 11:31:28;;;;;;;7.57;5.38;;;;;;;21.01;27.92;100323.41;5108910;28;20055;-63
2021/12/19 11:34:19;;;;;;;7.70;5.70;;;;;;;21.01;27.92;100323.41;5109901;28;20044;-63
2021/12/19 11:36:53;;;;;;;6.60;4.95;;;;;;;20.96;28.00;100313.34;5109867;28;20054;-63
2021/12/19 11:39:20;;;;;;;7.35;5.40;;;;;;;20.94;27.85;100315.69;5109948;28;20475;-64
2021/12/19 11:42:09;;;;;;;6.32;5.13;;;;;;;20.96;27.96;100312.53;5110093;28;20044;-64
2021/12/19 11:47:48;;;;;;;7.07;5.18;;;;;;;20.96;27.91;100302.22;5039035;28;20050;-63
2021/12/19 11:50:19;;;;;;;6.68;4.95;;;;;;;20.96;27.97;100304.19;5026984;28;20057;-64
2021/12/19 11:52:44;;;;;;;7.90;5.90;;;;;;;20.96;27.93;100295.84;5027571;28;20049;-65
2021/12/19 11:55:16;;;;;;;6.80;4.80;;;;;;;20.96;28.03;100295.84;5030369;28;20053;-65
2021/12/19 11:57:43;;;;;;;6.55;5.03;;;;;;;20.95;27.92;100297.03;5030364;28;20060;-62
2021/12/19 12:00:26;;;;;;;6.53;5.15;;;;;;;20.98;28.05;100282.41;5030497;28;20253;-61
2021/12/19 12:03:14;;;;;;;6.25;4.97;;;;;;;20.97;27.94;100287.16;5032075;28;20417;-63
2021/12/19 12:05:46;;;;;;;7.30;5.68;;;;;;;20.97;27.94;100275.22;5030427;28;20624;-64
2021/12/19 12:08:14;;;;;;;7.55;5.47;;;;;;;20.97;28.16;100275.22;5030249;28;20041;-63
2021/12/19 12:10:52;;;;;;;7.25;5.45;;;;;;;20.98;28.15;100265.72;5030029;28;20502;-64
2021/12/19 12:13:28;;;;;;;7.03;5.30;;;;;;;20.96;28.14;100263.28;5030268;28;20061;-64
2021/12/19 12:16:04;;;;;;;5.75;4.68;;;;;;;20.98;27.90;100254.59;5031960;28;20464;-64
2021/12/19 12:18:33;;;;;;;6.60;5.28;;;;;;;20.97;28.14;100248.22;5030926;28;20593;-63
2021/12/19 12:21:23;;;;;;;6.22;5.03;;;;;;;20.99;27.89;100237.53;5030315;28;20049;-64
2021/12/19 12:23:55;;;;;;;6.20;4.97;;;;;;;20.98;28.00;100240.69;5045117;28;20062;-64
2021/12/19 12:26:44;;;;;;;6.65;5.03;;;;;;;20.98;28.15;100241.47;5113217;28;20104;-64
2021/12/19 12:29:10;;;;;;;6.30;5.28;;;;;;;20.98;28.06;100238.69;5109667;28;20051;-64
2021/12/19 12:31:35;;;;;;;7.95;5.45;;;;;;;20.99;27.97;100228.38;5113034;28;20385;-64
2021/12/19 12:34:02;;;;;;;6.55;5.18;;;;;;;20.98;28.26;100221.22;5112708;28;20035;-63
2021/12/19 12:36:28;;;;;;;6.85;5.20;;;;;;;20.99;27.97;100208.91;5112817;28;20165;-63
2021/12/19 12:38:54;;;;;;;7.35;5.45;;;;;;;20.97;28.08;100212.06;5112740;28;20474;-63